Tabula Rasa — WDI3745 — position and weather

sailwx.info

Track history (hours):
 
Tides and Currents Weather Stations Pressure Air Temp Water Temp Dewpoint Dewpoint Depression Visibility Wind Speed Wind Dir Waves Ship Positions

Tabula Rasa

Owner: Henry, Brian P, East Hampton, NY. More information available from US FCC via Universal Licensing System and Coast Guard Vessel Documentation Center.

Last reported at 2018-Jul-06 22:08 UTC. Time now 2018-Jul-16 06:39 UTC.
Position N 26°54' W 080°05'.
Warning: this ship's position is 9 days out of date.

Length 21 m; draft 1.5 m.

Type: Pleasure craft. MMSI: 367691460.

Date/timePositionNaut miles runAvg speedWind from/ knotsBaromVisibWave heightAir tempDewpointWater temp
2018-Jul-06 22:08N 26°54' W 080°05'0 4.1
2018-Jul-06 22:00N 26°54' W 080°05'0 0.1
2018-Jul-06 20:21N 26°54' W 080°05'1 3.5
2018-Jul-06 20:01N 26°56' W 080°05'2 4.5
2018-Jul-06 19:30N 26°54' W 080°03'4629.3
2018-Jul-06 17:56N 26°08' W 080°05'2 4.8
2018-Jul-06 17:30N 26°07' W 080°06'0 0.0
2018-Jul-05 18:30N 26°07' W 080°06'3 6.3
2018-Jul-05 18:00N 26°04' W 080°06'1326.3
2018-Jul-05 17:30N 25°51' W 080°06'4 7.8
2018-Jul-05 16:59N 25°48' W 080°09'1 2.8
2018-Jul-05 16:30N 25°49' W 080°09'1 2.9
2018-Jul-05 16:00N 25°50' W 080°07'1 1.5
2018-Jul-05 15:26N 25°49' W 080°07'0 0.0
2018-Jul-05 14:59N 25°49' W 080°07'0 0.0
2018-Jul-05 13:59N 25°49' W 080°07'0 0.0
2018-Jul-05 13:26N 25°49' W 080°07'0 0.0
2018-Jul-05 12:59N 25°49' W 080°07'0 0.0
2018-Jul-05 12:29N 25°49' W 080°07'0 0.0
2018-Jul-05 11:56N 25°49' W 080°07'0 0.0
2018-Jul-05 11:14N 25°49' W 080°07'0 0.0
2018-Jul-05 10:56N 25°49' W 080°07'0 0.0
2018-Jul-05 10:26N 25°49' W 080°07'0 0.0
2018-Jul-05 09:56N 25°49' W 080°07'0 0.0
2018-Jul-05 09:29N 25°49' W 080°07'0 0.0
2018-Jul-05 08:59N 25°49' W 080°07'0 0.0
2018-Jul-05 08:23N 25°49' W 080°07'0 0.0
2018-Jul-05 07:59N 25°49' W 080°07'0 0.0
2018-Jul-05 07:29N 25°49' W 080°07'0 0.0
2018-Jul-05 06:59N 25°49' W 080°07'0 0.0
2018-Jul-05 06:26N 25°49' W 080°07'0 0.0
2018-Jul-05 05:59N 25°49' W 080°07'0 0.0
2018-Jul-05 05:29N 25°49' W 080°07'0 0.0
2018-Jul-05 04:56N 25°49' W 080°07'0 0.0
2018-Jul-05 04:29N 25°49' W 080°07'0 0.0
2018-Jul-05 03:59N 25°49' W 080°07'0 0.0
2018-Jul-05 03:23N 25°49' W 080°07'0 0.0
2018-Jul-05 02:56N 25°49' W 080°07'0 0.0
2018-Jul-05 02:29N 25°49' W 080°07'0 0.0
2018-Jul-05 01:59N 25°49' W 080°07'0 0.0
2018-Jul-05 01:26N 25°49' W 080°07'0 0.0
2018-Jul-05 00:59N 25°49' W 080°07'0 0.0
2018-Jul-05 00:26N 25°49' W 080°07'0 0.0
2018-Jul-04 23:59N 25°49' W 080°07'0 0.0
2018-Jul-04 23:29N 25°49' W 080°07'0 0.0
2018-Jul-04 22:59N 25°49' W 080°07'0 0.0
2018-Jul-04 22:26N 25°49' W 080°07'0 0.0
2018-Jul-04 21:50N 25°49' W 080°07'0 0.0
2018-Jul-04 21:29N 25°49' W 080°07'0 0.0
2018-Jul-04 20:59N 25°49' W 080°07'0 0.0
2018-Jul-04 20:29N 25°49' W 080°07'0 0.0
2018-Jul-04 19:59N 25°49' W 080°07'0 0.0
2018-Jul-04 19:29N 25°49' W 080°07'0 0.0
2018-Jul-04 18:58N 25°49' W 080°07'0 0.1
2018-Jul-04 18:28N 25°49' W 080°07'2 3.8
2018-Jul-04 18:00N 25°51' W 080°07'4 7.0
2018-Jul-04 17:29N 25°47' W 080°09'1 2.3
2018-Jul-04 17:00N 25°46' W 080°09'816.2
2018-Jul-04 16:30N 25°54' W 080°06'1224.0
2018-Jul-04 16:00N 26°06' W 080°04'4824.9
2018-Jul-04 14:05N 26°53' W 080°02'227.0
2018-Jul-04 14:00N 26°56' W 080°03'2 3.1
2018-Jul-04 13:30N 26°55' W 080°05'0 0.5
2018-Jul-04 12:44N 26°55' W 080°05'  
2018-Jul-01 20:43N 26°54' W 080°05'2 2.4
2018-Jul-01 19:59N 26°52' W 080°04'  
Track history (hours):
 
Tides and Currents Weather Stations Pressure Air Temp Water Temp Dewpoint Dewpoint Depression Visibility Wind Speed Wind Dir Waves Ship Positions

Tabula Rasa

Owner: Henry, Brian P, East Hampton, NY. More information available from US FCC via Universal Licensing System and Coast Guard Vessel Documentation Center.

Last reported at 2018-Jul-06 22:08 UTC. Time now 2018-Jul-16 06:39 UTC.
Position N 26°54' W 080°05'.
Warning: this ship's position is 9 days out of date.

Length 21 m; draft 1.5 m.

Type: Pleasure craft. MMSI: 367691460.

Date/timePositionNaut miles runAvg speedWind from/ knotsBaromVisibWave heightAir tempDewpointWater temp
2018-Jul-06 22:08N 26°54' W 080°05'0 4.1
2018-Jul-06 22:00N 26°54' W 080°05'0 0.1
2018-Jul-06 20:21N 26°54' W 080°05'1 3.5
2018-Jul-06 20:01N 26°56' W 080°05'2 4.5
2018-Jul-06 19:30N 26°54' W 080°03'4629.3
2018-Jul-06 17:56N 26°08' W 080°05'2 4.8
2018-Jul-06 17:30N 26°07' W 080°06'0 0.0
2018-Jul-05 18:30N 26°07' W 080°06'3 6.3
2018-Jul-05 18:00N 26°04' W 080°06'1326.3
2018-Jul-05 17:30N 25°51' W 080°06'4 7.8
2018-Jul-05 16:59N 25°48' W 080°09'1 2.8
2018-Jul-05 16:30N 25°49' W 080°09'1 2.9
2018-Jul-05 16:00N 25°50' W 080°07'1 1.5
2018-Jul-05 15:26N 25°49' W 080°07'0 0.0
2018-Jul-05 14:59N 25°49' W 080°07'0 0.0
2018-Jul-05 13:59N 25°49' W 080°07'0 0.0
2018-Jul-05 13:26N 25°49' W 080°07'0 0.0
2018-Jul-05 12:59N 25°49' W 080°07'0 0.0
2018-Jul-05 12:29N 25°49' W 080°07'0 0.0
2018-Jul-05 11:56N 25°49' W 080°07'0 0.0
2018-Jul-05 11:14N 25°49' W 080°07'0 0.0
2018-Jul-05 10:56N 25°49' W 080°07'0 0.0
2018-Jul-05 10:26N 25°49' W 080°07'0 0.0
2018-Jul-05 09:56N 25°49' W 080°07'0 0.0
2018-Jul-05 09:29N 25°49' W 080°07'0 0.0
2018-Jul-05 08:59N 25°49' W 080°07'0 0.0
2018-Jul-05 08:23N 25°49' W 080°07'0 0.0
2018-Jul-05 07:59N 25°49' W 080°07'0 0.0
2018-Jul-05 07:29N 25°49' W 080°07'0 0.0
2018-Jul-05 06:59N 25°49' W 080°07'0 0.0
2018-Jul-05 06:26N 25°49' W 080°07'0 0.0
2018-Jul-05 05:59N 25°49' W 080°07'0 0.0
2018-Jul-05 05:29N 25°49' W 080°07'0 0.0
2018-Jul-05 04:56N 25°49' W 080°07'0 0.0
2018-Jul-05 04:29N 25°49' W 080°07'0 0.0
2018-Jul-05 03:59N 25°49' W 080°07'0 0.0
2018-Jul-05 03:23N 25°49' W 080°07'0 0.0
2018-Jul-05 02:56N 25°49' W 080°07'0 0.0
2018-Jul-05 02:29N 25°49' W 080°07'0 0.0
2018-Jul-05 01:59N 25°49' W 080°07'0 0.0
2018-Jul-05 01:26N 25°49' W 080°07'0 0.0
2018-Jul-05 00:59N 25°49' W 080°07'0 0.0
2018-Jul-05 00:26N 25°49' W 080°07'0 0.0
2018-Jul-04 23:59N 25°49' W 080°07'0 0.0
2018-Jul-04 23:29N 25°49' W 080°07'0 0.0
2018-Jul-04 22:59N 25°49' W 080°07'0 0.0
2018-Jul-04 22:26N 25°49' W 080°07'0 0.0
2018-Jul-04 21:50N 25°49' W 080°07'0 0.0
2018-Jul-04 21:29N 25°49' W 080°07'0 0.0
2018-Jul-04 20:59N 25°49' W 080°07'0 0.0
2018-Jul-04 20:29N 25°49' W 080°07'0 0.0
2018-Jul-04 19:59N 25°49' W 080°07'0 0.0
2018-Jul-04 19:29N 25°49' W 080°07'0 0.0
2018-Jul-04 18:58N 25°49' W 080°07'0 0.1
2018-Jul-04 18:28N 25°49' W 080°07'2 3.8
2018-Jul-04 18:00N 25°51' W 080°07'4 7.0
2018-Jul-04 17:29N 25°47' W 080°09'1 2.3
2018-Jul-04 17:00N 25°46' W 080°09'816.2
2018-Jul-04 16:30N 25°54' W 080°06'1224.0
2018-Jul-04 16:00N 26°06' W 080°04'4824.9
2018-Jul-04 14:05N 26°53' W 080°02'227.0
2018-Jul-04 14:00N 26°56' W 080°03'2 3.1
2018-Jul-04 13:30N 26°55' W 080°05'0 0.5
2018-Jul-04 12:44N 26°55' W 080°05'  
2018-Jul-01 20:43N 26°54' W 080°05'2 2.4
2018-Jul-01 19:59N 26°52' W 080°04'  

Dump ship's entire track history